Terminal Aerodrome Forecast
Issued by NWS

Home | Current Version | Previous Version | Graphics & Text | Print | Product List | Glossary On
Versions: 1 2 3 4 5 6 7 8 9 10 11 12 13 14 15 16 17 18 19 20 21 22 23 24 25 26 27 28 29 30
000
FTUS43 KLOT 251120
TAFGYY
TAF
KGYY 251120Z 2512/2612 23006KT P6SM VCSH SCT015 BKN025
      TEMPO 2512/2514 SCT008 OVC012
     FM251400 29007KT P6SM VCSH BKN030
     FM251900 01009KT P6SM BKN035
     FM252100 35010KT P6SM SCT150
     FM260100 29004KT P6SM SCT120
     FM260800 33005KT P6SM BKN100=

USA.gov is the U.S. government's official web portal to all federal, state and local government web resources and services.